Flight Track Log - Related Links

Times and Time Zones

All times are in EDT time to prevent confusion due to time zone crossing. See the ASQ4233 flight status page for this flight to view local times or setup timezone preferences in your user account.

Time Position Orientation Groundspeed Altitude Reporting Facility
EDT Latitude Longitude Course Direction KTS MPH feet Rate Location/Type
Sun 07:57:00 PM 30.0403 -92.1907 229° Southwest  Level FlightAware Approximate
Sun 07:57:05 PM 30.1075 -92.1300 234° Southwest 237 273 6,300  Level Houston Center
Sun 07:58:00 PM 29.9974 -92.2646 229° Southwest  Level FlightAware Approximate
Sun 07:58:07 PM 30.0619 -92.2003 233° Southwest 262 302 9,000  Level Houston Center
Sun 07:59:00 PM 29.9450 -92.3345 229° Southwest  Level FlightAware Approximate
Sun 07:59:09 PM 30.0122 -92.2764 233° Southwest 286 329 10,700  Level Houston Center
Sun 08:00:00 PM 29.9008 -92.4144 249° West  Level FlightAware Approximate
Sun 08:00:11 PM 29.9425 -92.3819 233° Southwest 336 387 12,400  Level Houston Center
Sun 08:01:00 PM 29.8444 -92.4862 227° Southwest  Level FlightAware Approximate
Sun 08:01:13 PM 29.8831 -92.4742 233° Southwest 354 407 14,400  Level Houston Center
Sun 08:02:00 PM 29.7929 -92.5630 234° Southwest  Level FlightAware Approximate
Sun 08:02:15 PM 29.8239 -92.5633 233° Southwest 350 403 15,900  Level Houston Center
Sun 08:03:17 PM 29.7867 -92.6756 249° West 369 425 16,000 48 Climbing Houston Center
Sun 08:04:19 PM 29.7617 -92.7906 256° West 371 427 16,000  Level Houston Center
Sun 08:05:21 PM 29.7361 -92.9064 256° West 372 428 16,000  Level Houston Center
Sun 08:06:23 PM 29.7114 -93.0206 256° West 369 425 16,000  Level Houston Center
Sun 08:07:25 PM 29.6833 -93.1483 256° West 343 395 16,000  Level Houston Center
Sun 08:08:26 PM 29.6600 -93.2525 256° West 337 388 16,000  Level Houston Center
Sun 08:09:28 PM 29.6375 -93.3556 256° West 333 383 16,000  Level Houston Center
Sun 08:10:30 PM 29.6056 -93.4583 250° West 341 392 16,000  Level Houston Center
Sun 08:11:32 PM 29.5656 -93.5597 246° West 348 400 16,000  Level Houston Center
Sun 08:12:34 PM 29.5264 -93.6611 246° West 348 400 16,000 -242 Level Houston Center
Sun 08:13:36 PM 29.4744 -93.7558 238° Southwest 349 402 15,500 -774 Descending Houston Center
Sun 08:14:38 PM 29.4142 -93.8619 237° Southwest 333 383 14,400 -976 Descending Houston Center
Sun 08:15:39 PM 29.3719 -93.9353 237° Southwest 327 376 13,500 -683 Descending Houston Center
Sun 08:16:41 PM 29.3153 -94.0381 238° Southwest 319 367 13,000 -366 Descending Houston Center
Sun 08:17:01 PM 29.3222 -94.0753 282° West 327 376 13,000  Level Houston Center
Sun 08:17:43 PM 29.3606 -94.1283 310° West 340 391 13,000  Level Houston Center
Sun 08:18:08 PM 29.3900 -94.1647 313° West 335 386 13,000  Level Houston Center
Sun 08:18:45 PM 29.4225 -94.2056 312° West 332 382 13,000  Level Houston Center
Sun 08:19:09 PM 29.4483 -94.2411 310° West 326 375 13,000  Level Houston Center
Sun 08:19:47 PM 29.4831 -94.2822 314° West 326 375 13,000  Level Houston Center
Sun 08:20:04 PM 29.5081 -94.3125 313° West 325 374 13,000  Level Houston Center
Sun 08:20:49 PM 29.5406 -94.3617 307° West 329 379 13,000  Level Houston Center
Sun 08:21:05 PM 29.5569 -94.4022 295° West 325 374 13,000 -774 Level Houston Center
Sun 08:21:51 PM 29.5806 -94.4542 298° West 325 374 12,200 -1,433 Descending Houston Center
Sun 08:22:12 PM 29.6003 -94.5025 295° West 321 369 11,400 -1,742 Descending Houston Center
Sun 08:22:53 PM 29.6267 -94.5644 296° West 321 369 10,400 -1,377 Descending Houston Center
Sun 08:23:13 PM 29.6411 -94.5983 296° West 324 373 10,000 -387 Descending Houston Center
Sun 08:23:55 PM 29.6667 -94.6575 296° West 326 375 10,000  Level Houston Center
Sun 08:24:57 PM 29.7056 -94.7489 296° West 321 369 10,000  Level Houston Center
Sun 08:25:16 PM 29.7203 -94.7856 295° West 322 371 10,000  Level Houston Center
Sun 08:25:59 PM 29.7442 -94.8417 296° West 324 373 10,000 -295 Level Houston Center
Sun 08:26:17 PM 29.7586 -94.8769 295° West 298 343 9,700 -1,180 Descending Houston Center
Sun 08:27:00 PM 29.7797 -94.9228 298° West 297 342 8,800 -1,522 Descending Houston Center
Sun 08:27:24 PM 29.7986 -94.9683 296° West 282 325 8,000 -1,452 Descending Houston Center
Sun 08:28:02 PM 29.8131 -95.0022 296° West 280 322 7,300 -1,200 Descending Houston Center
Sun 08:29:04 PM 29.8536 -95.0989 296° West 282 325 6,000 -987 Descending Houston Center
Sun 08:29:21 PM 29.8636 -95.1242 295° West 277 319 6,000  Level Houston Center
Sun 08:30:06 PM 29.8869 -95.1781 297° West 278 320 6,000  Level Houston Center
Sun 08:30:22 PM 29.8964 -95.2044 292° West 283 326 6,000  Level Houston Center
Sun 08:31:17 PM 29.9000 -95.2883 273° West 283 326 6,000  Level Houston Center
Sun 08:32:18 PM 29.8978 -95.3803 268° West 271 312 6,000  Level Houston Center
Sun 08:33:12 PM 29.9000 -95.4369 273° West 263 303 6,000 -621 Level Houston Center
Sun 08:34:14 PM 29.9011 -95.5317 271° West 245 282 4,800 -1,306 Descending Houston Center
Sun 08:35:16 PM 29.9486 -95.5631 330° Northwest 236 272 3,300 -871 Descending Houston Center
Sun 08:36:18 PM 29.9972 -95.5386 24° Northeast 218 251 3,000 -290 Descending Houston Center

Login

Don't have an account? Register now (free) for customized features, flight alerts, and more!